TimeEDT,TemperatureF,Dew PointF,Humidity,Sea Level PressureIn,VisibilityMPH,Wind Direction,Wind SpeedMPH,Gust SpeedMPH,PrecipitationIn,Events,Conditions,WindDirDegrees,DateUTC
12:56 AM,51.1,45.0,80,29.88,-9999.0,NNW,8.1,-,N/A,,Unknown,330,2013-09-05 04:56:00
1:56 AM,50.0,44.1,80,29.88,-9999.0,Variable,4.6,-,N/A,,Unknown,0,2013-09-05 05:56:00
2:56 AM,50.0,45.0,83,29.86,-9999.0,NW,4.6,-,N/A,,Unknown,320,2013-09-05 06:56:00
3:56 AM,50.0,45.0,83,29.88,-9999.0,NNW,8.1,-,N/A,,Unknown,330,2013-09-05 07:56:00
4:56 AM,50.0,39.9,68,29.89,-9999.0,NNW,8.1,-,N/A,,Unknown,340,2013-09-05 08:56:00
5:56 AM,48.9,42.1,77,29.91,-9999.0,NNW,5.8,-,N/A,,Unknown,340,2013-09-05 09:56:00
6:56 AM,48.9,39.9,71,29.93,-9999.0,NNW,8.1,-,N/A,,Unknown,340,2013-09-05 10:56:00
7:56 AM,50.0,39.0,66,29.96,-9999.0,NNW,6.9,-,N/A,,Unknown,340,2013-09-05 11:56:00
8:56 AM,50.0,41.0,71,29.96,-9999.0,Variable,6.9,-,N/A,,Unknown,0,2013-09-05 12:56:00
9:56 AM,52.0,37.9,59,29.97,-9999.0,NNW,10.4,-,N/A,,Unknown,340,2013-09-05 13:56:00
10:56 AM,54.0,34.0,47,29.96,-9999.0,NW,11.5,21.9,N/A,,Unknown,320,2013-09-05 14:56:00
11:56 AM,55.9,34.0,44,29.95,-9999.0,NW,10.4,25.3,N/A,,Unknown,320,2013-09-05 15:56:00
12:56 PM,57.0,34.0,42,29.96,-9999.0,NW,8.1,20.7,N/A,,Unknown,320,2013-09-05 16:56:00
1:56 PM,57.0,33.1,40,29.95,-9999.0,Variable,6.9,19.6,N/A,,Unknown,0,2013-09-05 17:56:00
2:56 PM,55.0,34.0,45,29.97,-9999.0,NW,9.2,19.6,N/A,,Unknown,310,2013-09-05 18:56:00
3:56 PM,57.0,34.0,42,29.97,-9999.0,NW,8.1,20.7,N/A,,Unknown,320,2013-09-05 19:56:00
4:56 PM,54.0,32.0,43,30.00,-9999.0,Variable,6.9,-,N/A,,Unknown,0,2013-09-05 20:56:00
5:56 PM,53.1,34.0,48,30.01,-9999.0,Variable,5.8,-,N/A,,Unknown,0,2013-09-05 21:56:00
6:56 PM,51.1,33.1,50,30.03,-9999.0,NW,6.9,-,N/A,,Unknown,310,2013-09-05 22:56:00
7:56 PM,48.0,36.0,63,30.06,-9999.0,Variable,3.5,-,N/A,,Unknown,0,2013-09-05 23:56:00
8:56 PM,46.9,37.0,68,30.07,-9999.0,Variable,3.5,-,N/A,,Unknown,0,2013-09-06 00:56:00
9:56 PM,46.0,36.0,68,30.09,-9999.0,Variable,5.8,-,N/A,,Unknown,0,2013-09-06 01:56:00
10:56 PM,45.0,37.9,76,30.10,-9999.0,Calm,Calm,-,N/A,,Unknown,0,2013-09-06 02:56:00
11:56 PM,45.0,36.0,71,30.10,-9999.0,Calm,Calm,-,N/A,,Unknown,0,2013-09-06 03:56:00